createdAt,value
2022-09-30T00:00:09.182Z,1.50
2022-09-30T00:03:11.111Z,1.95
2022-09-30T00:06:12.933Z,1.58
2022-09-30T00:09:15.511Z,2.33
2022-09-30T00:12:17.819Z,1.83
2022-09-30T00:15:20.261Z,1.88
2022-09-30T00:18:22.337Z,1.85
2022-09-30T00:21:25.122Z,1.45
2022-09-30T00:24:26.827Z,1.70
2022-09-30T00:27:28.684Z,1.83
2022-09-30T00:30:30.385Z,2.30
2022-09-30T00:33:32.468Z,2.10
2022-09-30T00:36:45.509Z,1.88
2022-09-30T00:39:47.565Z,2.40
2022-09-30T00:42:49.540Z,1.95
2022-09-30T00:45:58.314Z,2.53
2022-09-30T00:49:13.337Z,1.98
2022-09-30T00:52:15.152Z,2.50
2022-09-30T00:56:04.491Z,2.47
2022-09-30T00:59:24.073Z,2.17
2022-09-30T01:02:25.947Z,2.30
2022-09-30T01:05:27.672Z,2.25
2022-09-30T01:08:32.275Z,2.70
2022-09-30T01:11:34.048Z,2.13
2022-09-30T01:14:37.568Z,2.13
2022-09-30T01:18:13.544Z,1.77
2022-09-30T01:21:45.378Z,2.28
2022-09-30T01:25:17.759Z,2.45
2022-09-30T01:28:58.122Z,1.98
2022-09-30T01:32:19.207Z,2.17
2022-09-30T01:35:51.166Z,2.42
2022-09-30T01:39:11.500Z,2.72
2022-09-30T01:42:36.063Z,2.78
2022-09-30T01:45:42.202Z,2.63
2022-09-30T01:49:00.193Z,2.75
2022-09-30T01:52:08.484Z,2.60
2022-09-30T01:55:32.096Z,3.40
2022-09-30T01:58:43.134Z,2.75
2022-09-30T02:01:51.346Z,2.38
2022-09-30T02:04:57.682Z,2.58
2022-09-30T02:08:29.621Z,2.72
2022-09-30T02:11:36.485Z,3.13
2022-09-30T02:14:45.963Z,3.03
2022-09-30T02:17:52.247Z,2.38
2022-09-30T02:20:59.243Z,2.25
2022-09-30T02:24:07.216Z,2.63
2022-09-30T02:27:15.505Z,2.83
2022-09-30T02:30:18.499Z,2.08
2022-09-30T02:33:29.024Z,2.70
2022-09-30T02:36:39.737Z,2.58
2022-09-30T02:39:49.278Z,2.30
2022-09-30T02:42:51.232Z,2.55
2022-09-30T02:46:05.834Z,2.78
2022-09-30T02:49:10.634Z,2.72
2022-09-30T02:52:34.879Z,2.38
2022-09-30T02:55:49.131Z,2.38
2022-09-30T02:58:52.967Z,2.40
2022-09-30T03:01:54.807Z,2.35
2022-09-30T03:04:56.783Z,2.05
2022-09-30T03:07:58.670Z,2.83
2022-09-30T03:11:00.473Z,2.30
2022-09-30T03:14:11.127Z,2.60
2022-09-30T03:17:29.485Z,2.25
2022-09-30T03:20:36.847Z,2.13
2022-09-30T03:23:59.792Z,2.63
2022-09-30T03:27:26.462Z,2.50
2022-09-30T03:30:31.576Z,2.22
2022-09-30T03:33:48.191Z,2.50
2022-09-30T03:37:19.735Z,1.70
2022-09-30T03:40:44.764Z,2.40
2022-09-30T03:44:02.176Z,2.42
2022-09-30T03:47:09.773Z,2.55
2022-09-30T03:50:15.714Z,2.33
2022-09-30T03:53:17.667Z,2.63
2022-09-30T03:56:31.663Z,2.50
2022-09-30T03:59:33.395Z,2.17
2022-09-30T04:02:37.687Z,2.25
2022-09-30T04:05:39.391Z,1.95
2022-09-30T04:08:41.115Z,2.00
2022-09-30T04:11:43.023Z,2.60
2022-09-30T04:14:44.763Z,1.80
2022-09-30T04:17:46.481Z,3.38
2022-09-30T04:20:48.246Z,2.03
2022-09-30T04:23:50.579Z,1.88
2022-09-30T04:26:52.498Z,2.40
2022-09-30T04:29:54.273Z,3.05
2022-09-30T04:32:56.032Z,2.95
2022-09-30T04:35:59.399Z,2.40
2022-09-30T04:39:01.192Z,3.33
2022-09-30T04:42:02.992Z,2.97
2022-09-30T04:45:12.571Z,2.60
2022-09-30T04:48:15.641Z,3.05
2022-09-30T04:51:21.813Z,3.10
2022-09-30T04:54:24.349Z,3.58
2022-09-30T04:57:27.157Z,2.78
2022-09-30T05:00:29.031Z,1.13
2022-09-30T05:03:30.784Z,1.83
2022-09-30T05:06:32.529Z,2.58
2022-09-30T05:09:35.449Z,1.25
2022-09-30T05:12:38.533Z,3.33
2022-09-30T05:15:40.417Z,2.45
2022-09-30T05:18:45.694Z,2.83
2022-09-30T05:21:47.782Z,3.30
2022-09-30T05:24:50.270Z,2.42
2022-09-30T05:27:53.893Z,3.15
2022-09-30T05:31:00.997Z,2.97
2022-09-30T05:34:02.736Z,2.80
2022-09-30T05:37:09.526Z,2.72
2022-09-30T05:40:11.292Z,3.17
2022-09-30T05:43:13.091Z,2.50
2022-09-30T05:46:16.042Z,1.88
2022-09-30T05:49:18.079Z,2.40
2022-09-30T05:52:19.856Z,2.47
2022-09-30T05:55:22.656Z,2.15
2022-09-30T05:58:24.627Z,2.55
2022-09-30T06:01:26.537Z,2.00
2022-09-30T06:04:28.164Z,2.78
2022-09-30T06:07:29.890Z,1.05
2022-09-30T06:10:31.851Z,2.47
2022-09-30T06:13:33.767Z,1.90
2022-09-30T06:16:35.659Z,3.13
2022-09-30T06:19:37.442Z,1.13
2022-09-30T06:22:39.180Z,0.93
2022-09-30T06:25:42.959Z,1.02
2022-09-30T06:28:45.387Z,2.03
2022-09-30T06:31:47.185Z,2.38
2022-09-30T06:34:48.912Z,1.98
2022-09-30T06:37:52.351Z,1.83
2022-09-30T06:40:54.057Z,0.63
2022-09-30T06:44:10.521Z,1.48
2022-09-30T06:47:23.197Z,1.80
2022-09-30T06:50:26.288Z,0.90
2022-09-30T06:53:28.020Z,0.43
2022-09-30T06:56:29.768Z,1.02
2022-09-30T06:59:31.453Z,1.00
2022-09-30T07:02:34.536Z,0.65
2022-09-30T07:05:37.516Z,1.27
2022-09-30T07:08:39.562Z,0.50
2022-09-30T07:11:41.264Z,0.38
2022-09-30T07:14:43.002Z,0.98
2022-09-30T07:17:44.731Z,0.77
2022-09-30T07:20:51.985Z,1.40
2022-09-30T07:23:54.930Z,0.77
2022-09-30T07:26:56.793Z,0.63
2022-09-30T07:30:24.061Z,1.08
2022-09-30T07:33:21.102Z,1.00
2022-09-30T07:36:32.501Z,1.00
2022-09-30T07:39:35.975Z,1.40
2022-09-30T07:42:45.480Z,1.23
2022-09-30T07:45:49.066Z,0.40
2022-09-30T07:48:52.448Z,0.73
2022-09-30T07:51:57.044Z,0.90
2022-09-30T07:54:58.776Z,1.83
2022-09-30T07:58:01.564Z,1.10
2022-09-30T08:01:06.940Z,0.63
2022-09-30T08:04:11.293Z,1.75
2022-09-30T08:07:15.378Z,1.83
2022-09-30T08:13:25.394Z,1.35
2022-09-30T08:16:27.181Z,0.45
2022-09-30T08:19:30.893Z,0.32
2022-09-30T08:22:32.696Z,1.40
2022-09-30T08:25:34.459Z,1.20
2022-09-30T08:28:37.848Z,0.55
2022-09-30T08:31:39.713Z,1.80
2022-09-30T08:34:41.444Z,0.45
2022-09-30T08:37:43.272Z,1.98
2022-09-30T08:41:23.575Z,2.00
2022-09-30T08:44:48.551Z,1.55
2022-09-30T08:47:57.633Z,0.88
2022-09-30T08:51:05.487Z,0.60
2022-09-30T08:54:13.958Z,2.67
2022-09-30T08:57:16.212Z,2.05
2022-09-30T09:00:19.369Z,2.13
2022-09-30T09:03:26.346Z,1.73
2022-09-30T09:06:54.819Z,1.67
2022-09-30T09:10:01.901Z,1.17
2022-09-30T09:13:31.456Z,1.23
2022-09-30T09:16:41.169Z,2.53
2022-09-30T09:19:49.395Z,0.95
2022-09-30T09:22:52.362Z,1.58
2022-09-30T09:25:55.759Z,1.17
2022-09-30T09:29:15.569Z,0.88
2022-09-30T09:32:18.415Z,1.45
2022-09-30T09:35:51.793Z,0.57
2022-09-30T09:39:18.493Z,1.15
2022-09-30T09:42:26.296Z,1.13
2022-09-30T09:45:40.337Z,1.98
2022-09-30T09:48:42.845Z,1.80
2022-09-30T09:51:54.708Z,2.50
2022-09-30T09:54:57.063Z,1.35
2022-09-30T09:58:13.667Z,1.27
2022-09-30T10:01:32.873Z,0.65
2022-09-30T10:04:35.447Z,0.57
2022-09-30T10:07:37.219Z,0.82
2022-09-30T10:10:53.963Z,1.40
2022-09-30T10:13:59.903Z,1.00
2022-09-30T10:17:03.760Z,1.17
2022-09-30T10:20:23.367Z,0.30
2022-09-30T10:23:33.320Z,0.55
2022-09-30T10:26:47.712Z,0.85
2022-09-30T10:29:51.059Z,2.08
2022-09-30T10:32:52.891Z,1.33
2022-09-30T10:36:00.410Z,0.60
2022-09-30T10:39:19.835Z,1.75
2022-09-30T10:42:27.963Z,1.65
2022-09-30T10:45:37.067Z,2.00
2022-09-30T10:48:40.686Z,1.30
2022-09-30T10:51:46.019Z,1.63
2022-09-30T10:54:55.898Z,1.48
2022-09-30T10:58:19.943Z,0.45
2022-09-30T11:01:32.669Z,1.45
2022-09-30T11:04:40.081Z,0.82
2022-09-30T11:08:11.458Z,1.02
2022-09-30T11:11:18.671Z,1.50
2022-09-30T11:15:08.224Z,1.17
2022-09-30T11:18:19.132Z,1.50
2022-09-30T11:21:44.590Z,1.52
2022-09-30T11:24:50.300Z,1.35
2022-09-30T11:28:07.304Z,1.30
2022-09-30T11:31:27.675Z,1.05
2022-09-30T11:34:35.492Z,1.15
2022-09-30T11:37:40.229Z,0.85
2022-09-30T11:41:12.278Z,1.00
2022-09-30T11:44:19.796Z,0.30
2022-09-30T11:48:06.194Z,0.70
2022-09-30T11:51:58.008Z,0.30
2022-09-30T11:55:24.299Z,1.23
2022-09-30T11:58:41.645Z,0.70
2022-09-30T12:01:50.394Z,0.60
2022-09-30T12:04:58.737Z,1.63
2022-09-30T12:08:15.452Z,0.60
2022-09-30T12:14:41.534Z,1.15
2022-09-30T12:17:50.967Z,0.88
2022-09-30T12:21:00.728Z,1.10
2022-09-30T12:24:25.479Z,0.70
2022-09-30T12:27:39.082Z,1.00
2022-09-30T12:30:41.667Z,0.90
2022-09-30T12:34:02.632Z,0.77
2022-09-30T12:37:38.323Z,1.00
2022-09-30T12:41:17.090Z,0.85
2022-09-30T12:44:40.999Z,0.90
2022-09-30T12:47:52.841Z,1.48
2022-09-30T12:50:57.989Z,1.02
2022-09-30T12:54:18.714Z,1.00
2022-09-30T12:57:27.057Z,1.20
2022-09-30T13:00:34.957Z,0.77
2022-09-30T13:03:51.441Z,1.13
2022-09-30T13:06:53.252Z,1.08
2022-09-30T13:10:22.092Z,0.93
2022-09-30T13:13:33.951Z,1.08
2022-09-30T13:17:01.732Z,0.47
2022-09-30T13:20:42.183Z,0.90
2022-09-30T13:23:51.036Z,1.15
2022-09-30T13:27:08.043Z,1.08
2022-09-30T13:30:15.751Z,1.20
2022-09-30T13:33:41.306Z,0.90
2022-09-30T13:36:52.019Z,0.68
2022-09-30T13:39:57.098Z,0.70
2022-09-30T13:43:00.296Z,1.00
2022-09-30T13:46:35.213Z,0.90
2022-09-30T13:49:49.812Z,0.63
2022-09-30T13:52:59.237Z,0.95
2022-09-30T13:56:07.818Z,1.00
2022-09-30T13:59:34.220Z,0.80
2022-09-30T14:02:53.800Z,1.00
2022-09-30T14:06:04.411Z,1.00
2022-09-30T14:09:30.215Z,0.70
2022-09-30T14:13:05.972Z,0.80
2022-09-30T14:16:46.046Z,0.90
2022-09-30T14:19:59.598Z,0.93
2022-09-30T14:23:01.618Z,0.90
2022-09-30T14:26:19.698Z,1.00
2022-09-30T14:29:43.790Z,0.90
2022-09-30T14:33:12.030Z,1.00
2022-09-30T14:36:17.182Z,0.85
2022-09-30T14:39:25.070Z,0.85
2022-09-30T14:42:38.655Z,0.75
2022-09-30T14:45:44.796Z,1.08
2022-09-30T14:48:48.522Z,0.95
2022-09-30T14:51:50.256Z,0.70
2022-09-30T14:54:51.939Z,0.70
2022-09-30T14:57:56.139Z,0.80
2022-09-30T15:01:06.216Z,1.10
2022-09-30T15:04:21.488Z,0.70
2022-09-30T15:07:23.376Z,0.70
2022-09-30T15:10:25.301Z,0.80
2022-09-30T15:13:29.136Z,0.90
2022-09-30T15:16:32.961Z,0.95
2022-09-30T15:19:43.398Z,0.70
2022-09-30T15:22:46.071Z,0.90
2022-09-30T15:25:48.004Z,1.02
2022-09-30T15:28:50.240Z,0.90
2022-09-30T15:32:03.093Z,0.70
2022-09-30T15:35:15.590Z,0.75
2022-09-30T15:38:25.374Z,0.68
2022-09-30T15:41:27.340Z,1.00
2022-09-30T15:44:39.135Z,0.93
2022-09-30T15:47:58.045Z,0.75
2022-09-30T15:51:01.430Z,0.90
2022-09-30T15:54:15.181Z,1.02
2022-09-30T15:57:47.247Z,0.90
2022-09-30T16:00:52.271Z,1.05
2022-09-30T16:03:54.755Z,0.77
2022-09-30T16:07:11.292Z,1.02
2022-09-30T16:10:20.940Z,1.17
2022-09-30T16:13:26.783Z,0.82
2022-09-30T16:16:32.142Z,0.82
2022-09-30T16:19:34.613Z,0.90
2022-09-30T16:22:42.729Z,1.10
2022-09-30T16:25:44.535Z,0.82
2022-09-30T16:28:46.361Z,0.90
2022-09-30T16:31:50.867Z,1.25
2022-09-30T16:34:53.940Z,0.95
2022-09-30T16:38:05.100Z,0.88
2022-09-30T16:41:11.333Z,1.20
2022-09-30T16:44:14.233Z,1.10
2022-09-30T16:47:18.038Z,1.10
2022-09-30T16:50:25.636Z,1.35
2022-09-30T16:53:27.664Z,1.10
2022-09-30T16:56:29.579Z,1.20
2022-09-30T16:59:32.642Z,1.25
2022-09-30T17:02:34.469Z,1.33
2022-09-30T17:05:36.698Z,1.17
2022-09-30T17:08:38.477Z,1.17
2022-09-30T17:11:40.233Z,1.27
2022-09-30T17:14:46.148Z,1.20
2022-09-30T17:17:48.518Z,1.60
2022-09-30T17:20:53.164Z,1.67
2022-09-30T17:23:55.761Z,1.77
2022-09-30T17:26:58.391Z,2.13
2022-09-30T17:30:01.281Z,2.42
2022-09-30T17:33:03.312Z,2.03
2022-09-30T17:36:10.382Z,2.05
2022-09-30T17:39:12.055Z,1.90
2022-09-30T17:42:33.619Z,1.80
2022-09-30T17:45:36.657Z,2.17
2022-09-30T17:48:39.447Z,2.08
2022-09-30T17:51:41.167Z,1.95
2022-09-30T17:54:42.985Z,1.98
2022-09-30T17:57:44.723Z,1.80
2022-09-30T18:00:47.134Z,1.88
2022-09-30T18:03:53.085Z,2.08
2022-09-30T18:06:55.957Z,1.90
2022-09-30T18:09:58.031Z,1.80
2022-09-30T18:12:59.749Z,2.58
2022-09-30T18:16:07.063Z,2.83
2022-09-30T18:19:09.073Z,2.95
2022-09-30T18:22:10.815Z,2.78
2022-09-30T18:25:21.647Z,2.58
2022-09-30T18:28:23.519Z,2.30
2022-09-30T18:31:31.202Z,2.47
2022-09-30T18:34:34.302Z,2.15
2022-09-30T18:37:36.150Z,2.00
2022-09-30T18:40:42.052Z,2.35
2022-09-30T18:43:45.316Z,2.30
2022-09-30T18:46:47.357Z,2.60
2022-09-30T18:49:49.071Z,2.55
2022-09-30T18:52:52.452Z,2.78
2022-09-30T18:55:54.345Z,2.85
2022-09-30T18:58:56.078Z,2.72
2022-09-30T19:01:59.642Z,2.30
2022-09-30T19:05:01.426Z,2.83
2022-09-30T19:08:03.269Z,3.10
2022-09-30T19:11:14.713Z,3.38
2022-09-30T19:14:16.487Z,3.28
2022-09-30T19:17:18.295Z,2.97
2022-09-30T19:20:20.041Z,2.95
2022-09-30T19:23:21.797Z,3.10
2022-09-30T19:26:27.053Z,3.15
2022-09-30T19:29:28.800Z,2.72
2022-09-30T19:32:34.427Z,2.28
2022-09-30T19:35:40.879Z,2.95
2022-09-30T19:38:45.344Z,3.00
2022-09-30T19:41:47.323Z,2.75
2022-09-30T19:44:49.785Z,2.35
2022-09-30T19:47:51.770Z,2.63
2022-09-30T19:51:04.559Z,1.95
2022-09-30T19:54:07.664Z,2.97
2022-09-30T19:57:09.568Z,2.55
2022-09-30T20:00:13.164Z,2.05
2022-09-30T20:03:15.364Z,2.33
2022-09-30T20:06:17.941Z,2.80
2022-09-30T20:09:19.975Z,2.67
2022-09-30T20:12:21.874Z,1.55
2022-09-30T20:15:46.070Z,2.58
2022-09-30T20:18:48.284Z,3.00
2022-09-30T20:21:51.971Z,2.97
2022-09-30T20:24:53.860Z,2.35
2022-09-30T20:27:55.684Z,2.97
2022-09-30T20:30:57.410Z,1.88
2022-09-30T20:34:00.501Z,3.50
2022-09-30T20:37:02.263Z,2.60
2022-09-30T20:40:04.694Z,2.90
2022-09-30T20:43:09.798Z,2.33
2022-09-30T20:46:11.704Z,1.95
2022-09-30T20:49:13.511Z,3.58
2022-09-30T20:52:15.599Z,3.25
2022-09-30T20:55:17.589Z,3.25
2022-09-30T20:58:19.429Z,3.30
2022-09-30T21:01:23.176Z,3.47
2022-09-30T21:04:24.951Z,3.75
2022-09-30T21:07:26.953Z,3.40
2022-09-30T21:10:33.579Z,2.88
2022-09-30T21:13:35.665Z,3.60
2022-09-30T21:16:37.421Z,3.63
2022-09-30T21:19:39.998Z,2.97
2022-09-30T21:22:42.960Z,2.90
2022-09-30T21:25:44.678Z,3.20
2022-09-30T21:28:49.663Z,3.60
2022-09-30T21:31:51.494Z,3.88
2022-09-30T21:34:53.256Z,3.03
2022-09-30T21:37:54.926Z,3.03
2022-09-30T21:40:58.658Z,3.47
2022-09-30T21:44:01.436Z,2.97
2022-09-30T21:47:03.183Z,3.22
2022-09-30T21:50:06.571Z,3.63
2022-09-30T21:53:08.237Z,3.38
2022-09-30T21:56:12.202Z,3.90
2022-09-30T21:59:15.098Z,3.45
2022-09-30T22:02:16.892Z,3.60
2022-09-30T22:05:20.840Z,3.58
2022-09-30T22:08:26.446Z,3.30
2022-09-30T22:11:30.751Z,3.07
2022-09-30T22:14:32.865Z,3.13
2022-09-30T22:17:34.630Z,1.95
2022-09-30T22:20:36.356Z,2.22
2022-09-30T22:23:38.603Z,2.58
2022-09-30T22:26:41.620Z,2.70
2022-09-30T22:29:43.305Z,2.63
2022-09-30T22:32:44.970Z,2.75
2022-09-30T22:36:05.352Z,2.58
2022-09-30T22:39:07.300Z,2.67
2022-09-30T22:42:09.456Z,2.53
2022-09-30T22:45:11.184Z,2.08
2022-09-30T22:48:12.865Z,1.20
2022-09-30T22:51:16.037Z,0.77
2022-09-30T22:54:17.924Z,2.17
2022-09-30T22:57:19.614Z,2.45
2022-09-30T23:00:21.334Z,2.40
2022-09-30T23:03:25.402Z,2.13
2022-09-30T23:06:27.304Z,2.45
2022-09-30T23:09:29.835Z,2.40
2022-09-30T23:12:32.389Z,2.08
2022-09-30T23:15:34.072Z,2.25
2022-09-30T23:18:36.344Z,2.85
2022-09-30T23:21:38.124Z,2.13
2022-09-30T23:24:41.043Z,2.47
2022-09-30T23:27:47.824Z,2.78
2022-09-30T23:30:49.617Z,2.72
2022-09-30T23:33:54.391Z,2.85
2022-09-30T23:36:56.102Z,2.60
2022-09-30T23:39:58.221Z,2.28
2022-09-30T23:42:59.851Z,2.20
2022-09-30T23:46:01.750Z,2.15
2022-09-30T23:49:03.556Z,2.28
2022-09-30T23:52:10.445Z,2.35
2022-09-30T23:55:14.670Z,2.28
2022-09-30T23:58:16.453Z,2.22
